sensor_id;sensor_type;location;lat;lon;timestamp;P1;durP1;ratioP1;P2;durP2;ratioP2
18142;SDS011;9197;50.930;3.140;2023-05-29T00:00:14;20.97;;;11.57;;
18142;SDS011;9197;50.930;3.140;2023-05-29T00:02:42;23.03;;;11.07;;
18142;SDS011;9197;50.930;3.140;2023-05-29T00:05:10;16.57;;;9.90;;
18142;SDS011;9197;50.930;3.140;2023-05-29T00:07:38;22.73;;;11.60;;
18142;SDS011;9197;50.930;3.140;2023-05-29T00:10:06;19.77;;;10.73;;
18142;SDS011;9197;50.930;3.140;2023-05-29T00:12:33;21.50;;;11.53;;
18142;SDS011;9197;50.930;3.140;2023-05-29T00:15:01;24.10;;;11.57;;
18142;SDS011;9197;50.930;3.140;2023-05-29T00:17:30;20.27;;;10.43;;
18142;SDS011;9197;50.930;3.140;2023-05-29T00:19:58;15.67;;;9.97;;
18142;SDS011;9197;50.930;3.140;2023-05-29T00:22:26;18.87;;;11.40;;
18142;SDS011;9197;50.930;3.140;2023-05-29T00:24:53;19.77;;;10.23;;
18142;SDS011;9197;50.930;3.140;2023-05-29T00:27:21;17.70;;;10.43;;
18142;SDS011;9197;50.930;3.140;2023-05-29T00:29:48;16.60;;;10.40;;
18142;SDS011;9197;50.930;3.140;2023-05-29T00:32:15;13.67;;;10.50;;
18142;SDS011;9197;50.930;3.140;2023-05-29T00:34:44;14.90;;;9.77;;
18142;SDS011;9197;50.930;3.140;2023-05-29T00:37:11;17.80;;;11.43;;
18142;SDS011;9197;50.930;3.140;2023-05-29T00:39:38;15.20;;;9.90;;
18142;SDS011;9197;50.930;3.140;2023-05-29T00:42:05;19.23;;;9.87;;
18142;SDS011;9197;50.930;3.140;2023-05-29T00:44:33;17.83;;;10.30;;
18142;SDS011;9197;50.930;3.140;2023-05-29T00:47:00;20.07;;;9.93;;
18142;SDS011;9197;50.930;3.140;2023-05-29T00:49:28;18.57;;;10.50;;
18142;SDS011;9197;50.930;3.140;2023-05-29T00:51:56;13.43;;;8.00;;
18142;SDS011;9197;50.930;3.140;2023-05-29T00:54:26;14.03;;;7.63;;
18142;SDS011;9197;50.930;3.140;2023-05-29T00:56:53;17.67;;;7.47;;
18142;SDS011;9197;50.930;3.140;2023-05-29T00:59:21;15.07;;;6.87;;
18142;SDS011;9197;50.930;3.140;2023-05-29T01:01:48;15.13;;;7.47;;
18142;SDS011;9197;50.930;3.140;2023-05-29T01:04:16;14.47;;;6.77;;
18142;SDS011;9197;50.930;3.140;2023-05-29T01:06:44;10.77;;;6.50;;
18142;SDS011;9197;50.930;3.140;2023-05-29T01:09:12;11.57;;;5.90;;
18142;SDS011;9197;50.930;3.140;2023-05-29T01:11:43;13.30;;;6.60;;
18142;SDS011;9197;50.930;3.140;2023-05-29T01:14:15;10.63;;;5.93;;
18142;SDS011;9197;50.930;3.140;2023-05-29T01:16:46;18.57;;;6.10;;
18142;SDS011;9197;50.930;3.140;2023-05-29T01:19:17;14.07;;;5.80;;
18142;SDS011;9197;50.930;3.140;2023-05-29T01:21:49;15.60;;;5.90;;
18142;SDS011;9197;50.930;3.140;2023-05-29T01:24:26;16.57;;;5.10;;
18142;SDS011;9197;50.930;3.140;2023-05-29T01:26:55;17.00;;;5.63;;
18142;SDS011;9197;50.930;3.140;2023-05-29T01:29:26;16.40;;;4.60;;
18142;SDS011;9197;50.930;3.140;2023-05-29T01:31:53;11.13;;;4.73;;
18142;SDS011;9197;50.930;3.140;2023-05-29T01:34:21;12.47;;;5.27;;
18142;SDS011;9197;50.930;3.140;2023-05-29T01:36:48;14.03;;;5.47;;
18142;SDS011;9197;50.930;3.140;2023-05-29T01:39:15;12.17;;;5.23;;
18142;SDS011;9197;50.930;3.140;2023-05-29T01:41:44;9.50;;;4.53;;
18142;SDS011;9197;50.930;3.140;2023-05-29T01:44:13;7.93;;;4.00;;
18142;SDS011;9197;50.930;3.140;2023-05-29T01:46:41;11.40;;;4.83;;
18142;SDS011;9197;50.930;3.140;2023-05-29T01:49:10;14.80;;;5.20;;
18142;SDS011;9197;50.930;3.140;2023-05-29T01:51:38;11.53;;;4.73;;
18142;SDS011;9197;50.930;3.140;2023-05-29T01:54:05;16.40;;;6.03;;
18142;SDS011;9197;50.930;3.140;2023-05-29T01:56:33;14.80;;;4.93;;
18142;SDS011;9197;50.930;3.140;2023-05-29T01:59:01;10.83;;;3.47;;
18142;SDS011;9197;50.930;3.140;2023-05-29T02:01:30;10.93;;;3.77;;
18142;SDS011;9197;50.930;3.140;2023-05-29T02:03:58;6.83;;;3.53;;
18142;SDS011;9197;50.930;3.140;2023-05-29T02:06:25;11.43;;;3.87;;
18142;SDS011;9197;50.930;3.140;2023-05-29T02:08:52;8.90;;;4.13;;
18142;SDS011;9197;50.930;3.140;2023-05-29T02:11:19;11.37;;;4.60;;
18142;SDS011;9197;50.930;3.140;2023-05-29T02:13:47;9.10;;;3.33;;
18142;SDS011;9197;50.930;3.140;2023-05-29T02:16:14;15.27;;;4.87;;
18142;SDS011;9197;50.930;3.140;2023-05-29T02:18:43;8.57;;;3.63;;
18142;SDS011;9197;50.930;3.140;2023-05-29T02:21:10;7.20;;;3.60;;
18142;SDS011;9197;50.930;3.140;2023-05-29T02:23:38;9.37;;;4.10;;
18142;SDS011;9197;50.930;3.140;2023-05-29T02:26:05;9.53;;;4.23;;
18142;SDS011;9197;50.930;3.140;2023-05-29T02:28:32;7.73;;;3.67;;
18142;SDS011;9197;50.930;3.140;2023-05-29T02:31:00;10.33;;;4.00;;
18142;SDS011;9197;50.930;3.140;2023-05-29T02:33:27;12.07;;;4.13;;
18142;SDS011;9197;50.930;3.140;2023-05-29T02:35:56;10.03;;;3.47;;
18142;SDS011;9197;50.930;3.140;2023-05-29T02:38:23;9.57;;;3.43;;
18142;SDS011;9197;50.930;3.140;2023-05-29T02:40:50;8.90;;;4.00;;
18142;SDS011;9197;50.930;3.140;2023-05-29T02:43:21;12.47;;;4.13;;
18142;SDS011;9197;50.930;3.140;2023-05-29T02:45:48;12.87;;;4.37;;
18142;SDS011;9197;50.930;3.140;2023-05-29T02:48:15;7.73;;;3.80;;
18142;SDS011;9197;50.930;3.140;2023-05-29T02:50:43;12.43;;;3.70;;
18142;SDS011;9197;50.930;3.140;2023-05-29T02:53:11;16.47;;;4.27;;
18142;SDS011;9197;50.930;3.140;2023-05-29T02:55:38;9.43;;;3.40;;
18142;SDS011;9197;50.930;3.140;2023-05-29T02:58:06;11.57;;;4.50;;
18142;SDS011;9197;50.930;3.140;2023-05-29T03:00:33;10.57;;;3.93;;
18142;SDS011;9197;50.930;3.140;2023-05-29T03:03:00;9.50;;;3.87;;
18142;SDS011;9197;50.930;3.140;2023-05-29T03:05:28;11.30;;;4.03;;
18142;SDS011;9197;50.930;3.140;2023-05-29T03:07:55;10.00;;;4.03;;
18142;SDS011;9197;50.930;3.140;2023-05-29T03:10:24;9.27;;;3.80;;
18142;SDS011;9197;50.930;3.140;2023-05-29T03:12:51;9.87;;;3.40;;
18142;SDS011;9197;50.930;3.140;2023-05-29T03:15:19;9.37;;;3.50;;
18142;SDS011;9197;50.930;3.140;2023-05-29T03:17:46;9.93;;;3.47;;
18142;SDS011;9197;50.930;3.140;2023-05-29T03:20:13;10.97;;;3.87;;
18142;SDS011;9197;50.930;3.140;2023-05-29T03:22:41;11.93;;;4.60;;
18142;SDS011;9197;50.930;3.140;2023-05-29T03:25:08;12.00;;;3.93;;
18142;SDS011;9197;50.930;3.140;2023-05-29T03:27:37;11.30;;;4.73;;
18142;SDS011;9197;50.930;3.140;2023-05-29T03:30:05;14.90;;;4.10;;
18142;SDS011;9197;50.930;3.140;2023-05-29T03:32:32;10.07;;;3.67;;
18142;SDS011;9197;50.930;3.140;2023-05-29T03:35:00;15.83;;;4.40;;
18142;SDS011;9197;50.930;3.140;2023-05-29T03:37:28;14.43;;;4.47;;
18142;SDS011;9197;50.930;3.140;2023-05-29T03:39:55;12.90;;;3.77;;
18142;SDS011;9197;50.930;3.140;2023-05-29T03:42:23;7.70;;;3.57;;
18142;SDS011;9197;50.930;3.140;2023-05-29T03:44:52;11.33;;;5.13;;
18142;SDS011;9197;50.930;3.140;2023-05-29T03:47:19;10.70;;;3.93;;
18142;SDS011;9197;50.930;3.140;2023-05-29T03:49:46;15.10;;;4.70;;
18142;SDS011;9197;50.930;3.140;2023-05-29T03:52:13;14.33;;;3.97;;
18142;SDS011;9197;50.930;3.140;2023-05-29T03:54:41;15.73;;;4.43;;
18142;SDS011;9197;50.930;3.140;2023-05-29T03:57:09;8.93;;;4.17;;
18142;SDS011;9197;50.930;3.140;2023-05-29T03:59:37;15.47;;;4.50;;
18142;SDS011;9197;50.930;3.140;2023-05-29T04:02:05;11.27;;;3.90;;
18142;SDS011;9197;50.930;3.140;2023-05-29T04:04:33;19.37;;;5.13;;
18142;SDS011;9197;50.930;3.140;2023-05-29T04:07:00;15.07;;;4.23;;
18142;SDS011;9197;50.930;3.140;2023-05-29T04:09:27;11.57;;;5.50;;
18142;SDS011;9197;50.930;3.140;2023-05-29T04:11:54;15.70;;;5.00;;
18142;SDS011;9197;50.930;3.140;2023-05-29T04:14:22;13.20;;;4.60;;
18142;SDS011;9197;50.930;3.140;2023-05-29T04:16:49;12.33;;;3.93;;
18142;SDS011;9197;50.930;3.140;2023-05-29T04:19:18;16.00;;;5.03;;
18142;SDS011;9197;50.930;3.140;2023-05-29T04:21:46;14.33;;;4.77;;
18142;SDS011;9197;50.930;3.140;2023-05-29T04:24:13;15.97;;;5.20;;
18142;SDS011;9197;50.930;3.140;2023-05-29T04:26:40;16.37;;;5.13;;
18142;SDS011;9197;50.930;3.140;2023-05-29T04:29:08;14.43;;;4.30;;
18142;SDS011;9197;50.930;3.140;2023-05-29T04:31:37;15.23;;;4.03;;
18142;SDS011;9197;50.930;3.140;2023-05-29T04:34:05;10.60;;;3.73;;
18142;SDS011;9197;50.930;3.140;2023-05-29T04:36:33;19.13;;;5.63;;
18142;SDS011;9197;50.930;3.140;2023-05-29T04:39:03;17.53;;;3.97;;
18142;SDS011;9197;50.930;3.140;2023-05-29T04:41:32;13.23;;;4.37;;
18142;SDS011;9197;50.930;3.140;2023-05-29T04:44:00;14.30;;;4.27;;
18142;SDS011;9197;50.930;3.140;2023-05-29T04:46:29;14.67;;;4.60;;
18142;SDS011;9197;50.930;3.140;2023-05-29T04:48:56;12.70;;;4.50;;
18142;SDS011;9197;50.930;3.140;2023-05-29T04:51:23;12.53;;;4.03;;
18142;SDS011;9197;50.930;3.140;2023-05-29T04:53:54;12.67;;;4.30;;
18142;SDS011;9197;50.930;3.140;2023-05-29T04:56:22;8.53;;;3.87;;
18142;SDS011;9197;50.930;3.140;2023-05-29T04:58:49;9.53;;;3.43;;
18142;SDS011;9197;50.930;3.140;2023-05-29T05:01:17;12.43;;;3.83;;
18142;SDS011;9197;50.930;3.140;2023-05-29T05:03:44;16.20;;;3.73;;
18142;SDS011;9197;50.930;3.140;2023-05-29T05:06:11;15.77;;;4.50;;
18142;SDS011;9197;50.930;3.140;2023-05-29T05:08:42;9.20;;;3.67;;
18142;SDS011;9197;50.930;3.140;2023-05-29T05:11:10;9.80;;;3.33;;
18142;SDS011;9197;50.930;3.140;2023-05-29T05:13:38;11.90;;;4.20;;
18142;SDS011;9197;50.930;3.140;2023-05-29T05:16:06;15.00;;;4.13;;
18142;SDS011;9197;50.930;3.140;2023-05-29T05:18:33;11.37;;;3.33;;
18142;SDS011;9197;50.930;3.140;2023-05-29T05:21:00;17.63;;;4.60;;
18142;SDS011;9197;50.930;3.140;2023-05-29T05:23:29;12.53;;;3.87;;
18142;SDS011;9197;50.930;3.140;2023-05-29T05:25:56;11.47;;;3.90;;
18142;SDS011;9197;50.930;3.140;2023-05-29T05:28:24;18.87;;;3.83;;
18142;SDS011;9197;50.930;3.140;2023-05-29T05:30:52;10.87;;;3.13;;
18142;SDS011;9197;50.930;3.140;2023-05-29T05:33:19;10.97;;;4.00;;
18142;SDS011;9197;50.930;3.140;2023-05-29T05:35:46;16.17;;;3.30;;
18142;SDS011;9197;50.930;3.140;2023-05-29T05:38:13;9.63;;;3.00;;
18142;SDS011;9197;50.930;3.140;2023-05-29T05:40:41;12.47;;;3.27;;
18142;SDS011;9197;50.930;3.140;2023-05-29T05:43:09;9.53;;;3.60;;
18142;SDS011;9197;50.930;3.140;2023-05-29T05:45:38;16.23;;;3.13;;
18142;SDS011;9197;50.930;3.140;2023-05-29T05:48:07;11.50;;;3.00;;
18142;SDS011;9197;50.930;3.140;2023-05-29T05:50:34;15.00;;;4.70;;
18142;SDS011;9197;50.930;3.140;2023-05-29T05:53:01;16.87;;;3.27;;
18142;SDS011;9197;50.930;3.140;2023-05-29T05:55:29;13.67;;;3.20;;
18142;SDS011;9197;50.930;3.140;2023-05-29T05:57:56;10.13;;;3.10;;
18142;SDS011;9197;50.930;3.140;2023-05-29T06:00:23;10.37;;;2.97;;
18142;SDS011;9197;50.930;3.140;2023-05-29T06:02:52;12.93;;;3.07;;
18142;SDS011;9197;50.930;3.140;2023-05-29T06:05:19;12.47;;;4.23;;
18142;SDS011;9197;50.930;3.140;2023-05-29T06:07:46;10.70;;;3.13;;
18142;SDS011;9197;50.930;3.140;2023-05-29T06:10:14;12.33;;;3.60;;
18142;SDS011;9197;50.930;3.140;2023-05-29T06:12:41;9.73;;;3.27;;
18142;SDS011;9197;50.930;3.140;2023-05-29T06:15:08;14.87;;;3.50;;
18142;SDS011;9197;50.930;3.140;2023-05-29T06:17:36;15.43;;;3.73;;
18142;SDS011;9197;50.930;3.140;2023-05-29T06:20:06;7.80;;;2.60;;
18142;SDS011;9197;50.930;3.140;2023-05-29T06:22:35;12.90;;;3.57;;
18142;SDS011;9197;50.930;3.140;2023-05-29T06:25:02;13.33;;;3.17;;
18142;SDS011;9197;50.930;3.140;2023-05-29T06:27:30;12.33;;;3.23;;
18142;SDS011;9197;50.930;3.140;2023-05-29T06:29:57;10.23;;;3.80;;
18142;SDS011;9197;50.930;3.140;2023-05-29T06:32:24;7.57;;;2.97;;
18142;SDS011;9197;50.930;3.140;2023-05-29T06:34:53;14.17;;;3.20;;
18142;SDS011;9197;50.930;3.140;2023-05-29T06:37:22;9.37;;;2.60;;
18142;SDS011;9197;50.930;3.140;2023-05-29T06:39:49;9.40;;;3.00;;
18142;SDS011;9197;50.930;3.140;2023-05-29T06:42:16;15.27;;;3.80;;
18142;SDS011;9197;50.930;3.140;2023-05-29T06:44:44;12.20;;;2.80;;
18142;SDS011;9197;50.930;3.140;2023-05-29T06:47:11;7.77;;;2.60;;
18142;SDS011;9197;50.930;3.140;2023-05-29T06:49:38;7.73;;;2.67;;
18142;SDS011;9197;50.930;3.140;2023-05-29T06:52:05;9.87;;;3.33;;
18142;SDS011;9197;50.930;3.140;2023-05-29T06:54:34;14.73;;;2.90;;
18142;SDS011;9197;50.930;3.140;2023-05-29T06:57:01;13.90;;;3.70;;
18142;SDS011;9197;50.930;3.140;2023-05-29T06:59:28;10.57;;;2.83;;
18142;SDS011;9197;50.930;3.140;2023-05-29T07:01:56;9.07;;;2.60;;
18142;SDS011;9197;50.930;3.140;2023-05-29T07:04:23;9.83;;;3.33;;
18142;SDS011;9197;50.930;3.140;2023-05-29T07:06:51;10.83;;;3.50;;
18142;SDS011;9197;50.930;3.140;2023-05-29T07:09:18;9.88;;;3.05;;
18142;SDS011;9197;50.930;3.140;2023-05-29T07:11:46;7.72;;;3.00;;
18142;SDS011;9197;50.930;3.140;2023-05-29T07:14:14;10.27;;;3.28;;
18142;SDS011;9197;50.930;3.140;2023-05-29T07:16:41;10.40;;;3.00;;
18142;SDS011;9197;50.930;3.140;2023-05-29T07:19:08;5.70;;;2.90;;
18142;SDS011;9197;50.930;3.140;2023-05-29T07:21:36;6.57;;;2.38;;
18142;SDS011;9197;50.930;3.140;2023-05-29T07:24:03;6.28;;;2.70;;
18142;SDS011;9197;50.930;3.140;2023-05-29T07:26:31;5.95;;;2.78;;
18142;SDS011;9197;50.930;3.140;2023-05-29T07:28:59;8.02;;;2.70;;
18142;SDS011;9197;50.930;3.140;2023-05-29T07:31:27;6.65;;;2.10;;
18142;SDS011;9197;50.930;3.140;2023-05-29T07:33:54;7.18;;;2.72;;
18142;SDS011;9197;50.930;3.140;2023-05-29T07:36:21;7.03;;;2.78;;
18142;SDS011;9197;50.930;3.140;2023-05-29T07:38:48;8.85;;;2.92;;
18142;SDS011;9197;50.930;3.140;2023-05-29T07:41:15;8.57;;;2.50;;
18142;SDS011;9197;50.930;3.140;2023-05-29T07:43:43;8.60;;;2.78;;
18142;SDS011;9197;50.930;3.140;2023-05-29T07:46:17;6.47;;;2.33;;
18142;SDS011;9197;50.930;3.140;2023-05-29T07:48:44;10.23;;;3.38;;
18142;SDS011;9197;50.930;3.140;2023-05-29T07:51:12;7.18;;;3.20;;
18142;SDS011;9197;50.930;3.140;2023-05-29T07:53:39;9.63;;;3.00;;
18142;SDS011;9197;50.930;3.140;2023-05-29T07:56:06;10.13;;;3.28;;
18142;SDS011;9197;50.930;3.140;2023-05-29T07:58:34;7.13;;;2.72;;
18142;SDS011;9197;50.930;3.140;2023-05-29T08:01:01;8.60;;;3.33;;
18142;SDS011;9197;50.930;3.140;2023-05-29T08:03:30;8.68;;;2.97;;
18142;SDS011;9197;50.930;3.140;2023-05-29T08:05:57;9.48;;;3.28;;
18142;SDS011;9197;50.930;3.140;2023-05-29T08:08:24;11.45;;;3.03;;
18142;SDS011;9197;50.930;3.140;2023-05-29T08:10:51;9.63;;;3.47;;
18142;SDS011;9197;50.930;3.140;2023-05-29T08:13:19;11.45;;;3.45;;
18142;SDS011;9197;50.930;3.140;2023-05-29T08:15:46;7.63;;;3.15;;
18142;SDS011;9197;50.930;3.140;2023-05-29T08:18:13;6.68;;;2.67;;
18142;SDS011;9197;50.930;3.140;2023-05-29T08:20:42;7.47;;;2.90;;
18142;SDS011;9197;50.930;3.140;2023-05-29T08:23:09;7.70;;;3.03;;
18142;SDS011;9197;50.930;3.140;2023-05-29T08:25:37;8.65;;;2.92;;
18142;SDS011;9197;50.930;3.140;2023-05-29T08:28:04;7.40;;;2.63;;
18142;SDS011;9197;50.930;3.140;2023-05-29T08:30:31;4.88;;;2.47;;
18142;SDS011;9197;50.930;3.140;2023-05-29T08:32:59;9.77;;;3.17;;
18142;SDS011;9197;50.930;3.140;2023-05-29T08:35:26;7.45;;;3.13;;
18142;SDS011;9197;50.930;3.140;2023-05-29T08:37:55;6.65;;;3.20;;
18142;SDS011;9197;50.930;3.140;2023-05-29T08:40:22;10.10;;;3.08;;
18142;SDS011;9197;50.930;3.140;2023-05-29T08:42:50;7.43;;;3.15;;
18142;SDS011;9197;50.930;3.140;2023-05-29T08:45:18;9.70;;;3.05;;
18142;SDS011;9197;50.930;3.140;2023-05-29T08:47:46;8.25;;;2.97;;
18142;SDS011;9197;50.930;3.140;2023-05-29T08:50:16;8.02;;;3.45;;
18142;SDS011;9197;50.930;3.140;2023-05-29T08:52:44;6.85;;;3.28;;
18142;SDS011;9197;50.930;3.140;2023-05-29T08:55:13;6.97;;;2.83;;
18142;SDS011;9197;50.930;3.140;2023-05-29T08:57:40;10.68;;;3.15;;
18142;SDS011;9197;50.930;3.140;2023-05-29T09:00:09;6.57;;;3.22;;
18142;SDS011;9197;50.930;3.140;2023-05-29T09:02:38;10.32;;;3.40;;
18142;SDS011;9197;50.930;3.140;2023-05-29T09:05:06;8.80;;;3.40;;
18142;SDS011;9197;50.930;3.140;2023-05-29T09:07:34;8.50;;;3.30;;
18142;SDS011;9197;50.930;3.140;2023-05-29T09:10:04;8.57;;;3.22;;
18142;SDS011;9197;50.930;3.140;2023-05-29T09:12:33;7.68;;;2.67;;
18142;SDS011;9197;50.930;3.140;2023-05-29T09:15:00;8.80;;;3.22;;
18142;SDS011;9197;50.930;3.140;2023-05-29T09:17:30;6.00;;;2.63;;
18142;SDS011;9197;50.930;3.140;2023-05-29T09:19:58;6.47;;;3.28;;
18142;SDS011;9197;50.930;3.140;2023-05-29T09:22:25;10.73;;;3.78;;
18142;SDS011;9197;50.930;3.140;2023-05-29T09:24:52;8.73;;;3.78;;
18142;SDS011;9197;50.930;3.140;2023-05-29T09:27:21;9.15;;;3.47;;
18142;SDS011;9197;50.930;3.140;2023-05-29T09:29:50;11.02;;;3.30;;
18142;SDS011;9197;50.930;3.140;2023-05-29T09:32:17;7.40;;;2.83;;
18142;SDS011;9197;50.930;3.140;2023-05-29T09:34:45;9.75;;;3.38;;
18142;SDS011;9197;50.930;3.140;2023-05-29T09:37:12;9.90;;;2.88;;
18142;SDS011;9197;50.930;3.140;2023-05-29T09:39:46;8.60;;;4.03;;
18142;SDS011;9197;50.930;3.140;2023-05-29T09:42:13;9.55;;;3.55;;
18142;SDS011;9197;50.930;3.140;2023-05-29T09:44:41;8.55;;;3.53;;
18142;SDS011;9197;50.930;3.140;2023-05-29T09:47:09;6.45;;;3.33;;
18142;SDS011;9197;50.930;3.140;2023-05-29T09:49:41;9.23;;;4.00;;
18142;SDS011;9197;50.930;3.140;2023-05-29T09:52:08;7.97;;;3.83;;
18142;SDS011;9197;50.930;3.140;2023-05-29T09:54:39;7.13;;;3.70;;
18142;SDS011;9197;50.930;3.140;2023-05-29T09:57:10;7.72;;;3.53;;
18142;SDS011;9197;50.930;3.140;2023-05-29T09:59:40;7.65;;;3.55;;
18142;SDS011;9197;50.930;3.140;2023-05-29T10:02:11;8.50;;;3.92;;
18142;SDS011;9197;50.930;3.140;2023-05-29T10:04:39;7.80;;;3.75;;
18142;SDS011;9197;50.930;3.140;2023-05-29T10:07:08;11.40;;;4.68;;
18142;SDS011;9197;50.930;3.140;2023-05-29T10:09:38;8.52;;;3.65;;
18142;SDS011;9197;50.930;3.140;2023-05-29T10:12:06;8.18;;;3.72;;
18142;SDS011;9197;50.930;3.140;2023-05-29T10:14:34;8.02;;;3.80;;
18142;SDS011;9197;50.930;3.140;2023-05-29T10:17:02;7.20;;;3.85;;
18142;SDS011;9197;50.930;3.140;2023-05-29T10:19:35;10.63;;;3.53;;
18142;SDS011;9197;50.930;3.140;2023-05-29T10:22:03;13.00;;;4.05;;
18142;SDS011;9197;50.930;3.140;2023-05-29T10:24:31;12.05;;;4.68;;
18142;SDS011;9197;50.930;3.140;2023-05-29T10:26:58;5.93;;;3.00;;
18142;SDS011;9197;50.930;3.140;2023-05-29T10:29:26;7.22;;;3.58;;
18142;SDS011;9197;50.930;3.140;2023-05-29T10:32:01;7.13;;;3.53;;
18142;SDS011;9197;50.930;3.140;2023-05-29T10:34:30;7.75;;;3.72;;
18142;SDS011;9197;50.930;3.140;2023-05-29T10:37:01;6.15;;;3.55;;
18142;SDS011;9197;50.930;3.140;2023-05-29T10:39:31;10.65;;;3.67;;
18142;SDS011;9197;50.930;3.140;2023-05-29T10:41:58;6.53;;;3.22;;
18142;SDS011;9197;50.930;3.140;2023-05-29T10:47:22;8.63;;;3.17;;
18142;SDS011;9197;50.930;3.140;2023-05-29T10:49:49;10.00;;;3.28;;
18142;SDS011;9197;50.930;3.140;2023-05-29T10:52:19;9.55;;;4.57;;
18142;SDS011;9197;50.930;3.140;2023-05-29T10:54:50;5.00;;;3.05;;
18142;SDS011;9197;50.930;3.140;2023-05-29T10:57:22;10.45;;;4.43;;
18142;SDS011;9197;50.930;3.140;2023-05-29T10:59:59;11.38;;;4.18;;
18142;SDS011;9197;50.930;3.140;2023-05-29T11:02:27;9.45;;;4.00;;
18142;SDS011;9197;50.930;3.140;2023-05-29T11:05:05;6.72;;;3.42;;
18142;SDS011;9197;50.930;3.140;2023-05-29T11:07:34;7.63;;;3.95;;
18142;SDS011;9197;50.930;3.140;2023-05-29T11:10:11;11.95;;;4.18;;
18142;SDS011;9197;50.930;3.140;2023-05-29T11:15:20;7.38;;;3.78;;
18142;SDS011;9197;50.930;3.140;2023-05-29T11:17:48;9.57;;;4.47;;
18142;SDS011;9197;50.930;3.140;2023-05-29T11:20:17;11.25;;;4.50;;
18142;SDS011;9197;50.930;3.140;2023-05-29T11:22:53;11.43;;;3.85;;
18142;SDS011;9197;50.930;3.140;2023-05-29T11:25:23;9.65;;;4.18;;
18142;SDS011;9197;50.930;3.140;2023-05-29T11:27:52;8.77;;;3.95;;
18142;SDS011;9197;50.930;3.140;2023-05-29T11:30:19;9.80;;;3.72;;
18142;SDS011;9197;50.930;3.140;2023-05-29T11:32:47;11.45;;;5.07;;
18142;SDS011;9197;50.930;3.140;2023-05-29T11:35:17;7.65;;;4.15;;
18142;SDS011;9197;50.930;3.140;2023-05-29T11:37:46;11.38;;;4.45;;
18142;SDS011;9197;50.930;3.140;2023-05-29T11:40:16;10.48;;;3.83;;
18142;SDS011;9197;50.930;3.140;2023-05-29T11:42:44;7.90;;;4.07;;
18142;SDS011;9197;50.930;3.140;2023-05-29T11:45:14;12.38;;;4.55;;
18142;SDS011;9197;50.930;3.140;2023-05-29T11:47:54;8.73;;;4.20;;
18142;SDS011;9197;50.930;3.140;2023-05-29T11:50:21;10.05;;;4.10;;
18142;SDS011;9197;50.930;3.140;2023-05-29T11:52:49;12.32;;;4.35;;
18142;SDS011;9197;50.930;3.140;2023-05-29T11:55:18;8.63;;;5.28;;
18142;SDS011;9197;50.930;3.140;2023-05-29T11:57:46;18.20;;;5.90;;
18142;SDS011;9197;50.930;3.140;2023-05-29T12:00:14;16.40;;;10.57;;
18142;SDS011;9197;50.930;3.140;2023-05-29T12:02:41;6.18;;;4.90;;
18142;SDS011;9197;50.930;3.140;2023-05-29T12:05:11;9.68;;;6.18;;
18142;SDS011;9197;50.930;3.140;2023-05-29T12:07:46;17.13;;;8.88;;
18142;SDS011;9197;50.930;3.140;2023-05-29T12:10:15;11.80;;;6.68;;
18142;SDS011;9197;50.930;3.140;2023-05-29T12:12:46;15.57;;;7.15;;
18142;SDS011;9197;50.930;3.140;2023-05-29T12:15:15;12.65;;;8.77;;
18142;SDS011;9197;50.930;3.140;2023-05-29T12:17:43;10.95;;;6.38;;
18142;SDS011;9197;50.930;3.140;2023-05-29T12:20:11;9.07;;;4.20;;
18142;SDS011;9197;50.930;3.140;2023-05-29T12:22:39;11.27;;;4.47;;
18142;SDS011;9197;50.930;3.140;2023-05-29T12:25:07;10.10;;;4.35;;
18142;SDS011;9197;50.930;3.140;2023-05-29T12:27:37;14.73;;;10.55;;
18142;SDS011;9197;50.930;3.140;2023-05-29T12:30:10;10.02;;;4.78;;
18142;SDS011;9197;50.930;3.140;2023-05-29T12:32:40;8.35;;;4.68;;
18142;SDS011;9197;50.930;3.140;2023-05-29T12:35:14;8.90;;;3.67;;
18142;SDS011;9197;50.930;3.140;2023-05-29T12:37:44;6.80;;;3.92;;
18142;SDS011;9197;50.930;3.140;2023-05-29T12:40:15;10.82;;;5.38;;
18142;SDS011;9197;50.930;3.140;2023-05-29T12:42:42;9.73;;;3.88;;
18142;SDS011;9197;50.930;3.140;2023-05-29T12:45:12;9.35;;;4.00;;
18142;SDS011;9197;50.930;3.140;2023-05-29T12:47:49;11.93;;;4.18;;
18142;SDS011;9197;50.930;3.140;2023-05-29T12:50:21;9.98;;;4.40;;
18142;SDS011;9197;50.930;3.140;2023-05-29T12:52:55;11.25;;;3.72;;
18142;SDS011;9197;50.930;3.140;2023-05-29T12:55:22;11.18;;;3.70;;
18142;SDS011;9197;50.930;3.140;2023-05-29T12:57:49;9.23;;;4.07;;
18142;SDS011;9197;50.930;3.140;2023-05-29T13:00:18;10.45;;;3.13;;
18142;SDS011;9197;50.930;3.140;2023-05-29T13:02:46;10.52;;;3.25;;
18142;SDS011;9197;50.930;3.140;2023-05-29T13:05:14;7.00;;;3.33;;
18142;SDS011;9197;50.930;3.140;2023-05-29T13:07:43;8.23;;;4.18;;
18142;SDS011;9197;50.930;3.140;2023-05-29T13:10:11;8.25;;;3.38;;
18142;SDS011;9197;50.930;3.140;2023-05-29T13:12:38;9.20;;;4.35;;
18142;SDS011;9197;50.930;3.140;2023-05-29T13:15:06;10.02;;;3.70;;
18142;SDS011;9197;50.930;3.140;2023-05-29T13:17:35;9.63;;;4.00;;
18142;SDS011;9197;50.930;3.140;2023-05-29T13:20:02;10.80;;;4.45;;
18142;SDS011;9197;50.930;3.140;2023-05-29T13:22:32;5.28;;;2.97;;
18142;SDS011;9197;50.930;3.140;2023-05-29T13:24:59;8.77;;;3.63;;
18142;SDS011;9197;50.930;3.140;2023-05-29T13:27:26;9.90;;;3.30;;
18142;SDS011;9197;50.930;3.140;2023-05-29T13:29:54;10.18;;;3.47;;
18142;SDS011;9197;50.930;3.140;2023-05-29T13:32:21;7.35;;;3.17;;
18142;SDS011;9197;50.930;3.140;2023-05-29T13:34:50;10.00;;;3.42;;
18142;SDS011;9197;50.930;3.140;2023-05-29T13:37:17;9.18;;;3.65;;
18142;SDS011;9197;50.930;3.140;2023-05-29T13:39:44;10.32;;;4.10;;
18142;SDS011;9197;50.930;3.140;2023-05-29T13:42:12;13.82;;;4.20;;
18142;SDS011;9197;50.930;3.140;2023-05-29T13:44:39;12.27;;;4.15;;
18142;SDS011;9197;50.930;3.140;2023-05-29T13:47:06;12.63;;;3.47;;
18142;SDS011;9197;50.930;3.140;2023-05-29T13:49:34;10.77;;;4.45;;
18142;SDS011;9197;50.930;3.140;2023-05-29T13:52:03;10.55;;;4.68;;
18142;SDS011;9197;50.930;3.140;2023-05-29T13:54:30;9.02;;;3.58;;
18142;SDS011;9197;50.930;3.140;2023-05-29T13:57:00;12.60;;;3.83;;
18142;SDS011;9197;50.930;3.140;2023-05-29T13:59:28;11.93;;;3.55;;
18142;SDS011;9197;50.930;3.140;2023-05-29T14:01:55;11.40;;;3.67;;
18142;SDS011;9197;50.930;3.140;2023-05-29T14:04:23;11.65;;;3.63;;
18142;SDS011;9197;50.930;3.140;2023-05-29T14:06:50;12.43;;;3.72;;
18142;SDS011;9197;50.930;3.140;2023-05-29T14:09:19;10.05;;;3.95;;
18142;SDS011;9197;50.930;3.140;2023-05-29T14:11:51;15.30;;;3.72;;
18142;SDS011;9197;50.930;3.140;2023-05-29T14:14:19;14.68;;;4.75;;
18142;SDS011;9197;50.930;3.140;2023-05-29T14:16:46;9.50;;;2.75;;
18142;SDS011;9197;50.930;3.140;2023-05-29T14:19:13;11.45;;;3.40;;
18142;SDS011;9197;50.930;3.140;2023-05-29T14:21:40;9.00;;;2.95;;
18142;SDS011;9197;50.930;3.140;2023-05-29T14:24:08;10.75;;;3.65;;
18142;SDS011;9197;50.930;3.140;2023-05-29T14:26:36;12.43;;;3.72;;
18142;SDS011;9197;50.930;3.140;2023-05-29T14:29:03;12.52;;;4.18;;
18142;SDS011;9197;50.930;3.140;2023-05-29T14:31:31;11.40;;;4.07;;
18142;SDS011;9197;50.930;3.140;2023-05-29T14:33:58;14.45;;;3.88;;
18142;SDS011;9197;50.930;3.140;2023-05-29T14:36:25;10.02;;;3.60;;
18142;SDS011;9197;50.930;3.140;2023-05-29T14:38:52;16.25;;;4.13;;
18142;SDS011;9197;50.930;3.140;2023-05-29T14:41:20;14.32;;;4.35;;
18142;SDS011;9197;50.930;3.140;2023-05-29T14:43:49;11.75;;;4.43;;
18142;SDS011;9197;50.930;3.140;2023-05-29T14:46:16;13.18;;;4.40;;
18142;SDS011;9197;50.930;3.140;2023-05-29T14:48:44;13.75;;;3.65;;
18142;SDS011;9197;50.930;3.140;2023-05-29T14:51:14;11.13;;;4.70;;
18142;SDS011;9197;50.930;3.140;2023-05-29T14:53:42;13.73;;;3.95;;
18142;SDS011;9197;50.930;3.140;2023-05-29T14:56:10;17.90;;;4.72;;
18142;SDS011;9197;50.930;3.140;2023-05-29T14:58:37;14.38;;;4.00;;
18142;SDS011;9197;50.930;3.140;2023-05-29T15:01:07;13.80;;;4.53;;
18142;SDS011;9197;50.930;3.140;2023-05-29T15:03:35;17.40;;;4.78;;